sensor_id;sensor_type;location;lat;lon;timestamp;P1;durP1;ratioP1;P2;durP2;ratioP2
42260;SDS011;27926;48.062;7.474;2022-11-15T00:01:05;8.75;;;2.78;;
42260;SDS011;27926;48.062;7.474;2022-11-15T00:03:37;7.07;;;2.80;;
42260;SDS011;27926;48.062;7.474;2022-11-15T00:06:05;6.03;;;2.78;;
42260;SDS011;27926;48.062;7.474;2022-11-15T00:08:30;4.35;;;2.28;;
42260;SDS011;27926;48.062;7.474;2022-11-15T00:10:59;8.50;;;3.08;;
42260;SDS011;27926;48.062;7.474;2022-11-15T00:13:25;9.52;;;2.33;;
42260;SDS011;27926;48.062;7.474;2022-11-15T00:15:50;3.53;;;2.20;;
42260;SDS011;27926;48.062;7.474;2022-11-15T00:18:15;4.28;;;2.25;;
42260;SDS011;27926;48.062;7.474;2022-11-15T00:20:40;8.80;;;3.23;;
42260;SDS011;27926;48.062;7.474;2022-11-15T00:23:05;7.70;;;2.70;;
42260;SDS011;27926;48.062;7.474;2022-11-15T00:25:30;5.47;;;2.35;;
42260;SDS011;27926;48.062;7.474;2022-11-15T00:27:56;8.13;;;2.80;;
42260;SDS011;27926;48.062;7.474;2022-11-15T00:30:21;5.90;;;2.90;;
42260;SDS011;27926;48.062;7.474;2022-11-15T00:32:45;5.80;;;2.65;;
42260;SDS011;27926;48.062;7.474;2022-11-15T00:35:10;9.90;;;2.22;;
42260;SDS011;27926;48.062;7.474;2022-11-15T00:37:34;6.20;;;2.63;;
42260;SDS011;27926;48.062;7.474;2022-11-15T00:39:59;6.72;;;3.15;;
42260;SDS011;27926;48.062;7.474;2022-11-15T00:42:23;5.82;;;2.60;;
42260;SDS011;27926;48.062;7.474;2022-11-15T00:44:48;7.95;;;2.58;;
42260;SDS011;27926;48.062;7.474;2022-11-15T00:47:13;7.45;;;2.83;;
42260;SDS011;27926;48.062;7.474;2022-11-15T00:49:37;9.63;;;2.70;;
42260;SDS011;27926;48.062;7.474;2022-11-15T00:52:02;5.15;;;2.90;;
42260;SDS011;27926;48.062;7.474;2022-11-15T00:54:27;5.93;;;3.30;;
42260;SDS011;27926;48.062;7.474;2022-11-15T00:56:51;7.80;;;3.22;;
42260;SDS011;27926;48.062;7.474;2022-11-15T00:59:16;10.32;;;3.33;;
42260;SDS011;27926;48.062;7.474;2022-11-15T01:01:40;7.18;;;2.83;;
42260;SDS011;27926;48.062;7.474;2022-11-15T01:04:05;6.35;;;3.60;;
42260;SDS011;27926;48.062;7.474;2022-11-15T01:06:30;11.02;;;3.80;;
42260;SDS011;27926;48.062;7.474;2022-11-15T01:08:54;9.88;;;3.50;;
42260;SDS011;27926;48.062;7.474;2022-11-15T01:11:19;8.48;;;3.72;;
42260;SDS011;27926;48.062;7.474;2022-11-15T01:13:44;12.57;;;3.95;;
42260;SDS011;27926;48.062;7.474;2022-11-15T01:16:09;7.53;;;3.85;;
42260;SDS011;27926;48.062;7.474;2022-11-15T01:18:40;8.77;;;4.13;;
42260;SDS011;27926;48.062;7.474;2022-11-15T01:21:08;11.68;;;4.78;;
42260;SDS011;27926;48.062;7.474;2022-11-15T01:23:34;10.45;;;4.63;;
42260;SDS011;27926;48.062;7.474;2022-11-15T01:25:59;10.65;;;5.05;;
42260;SDS011;27926;48.062;7.474;2022-11-15T01:28:28;11.60;;;5.25;;
42260;SDS011;27926;48.062;7.474;2022-11-15T01:30:56;9.02;;;4.80;;
42260;SDS011;27926;48.062;7.474;2022-11-15T01:33:22;15.10;;;5.80;;
42260;SDS011;27926;48.062;7.474;2022-11-15T01:35:47;16.25;;;5.43;;
42260;SDS011;27926;48.062;7.474;2022-11-15T01:38:11;13.93;;;5.65;;
42260;SDS011;27926;48.062;7.474;2022-11-15T01:40:36;18.35;;;6.00;;
42260;SDS011;27926;48.062;7.474;2022-11-15T01:43:18;12.18;;;5.30;;
42260;SDS011;27926;48.062;7.474;2022-11-15T01:46:36;11.98;;;5.40;;
42260;SDS011;27926;48.062;7.474;2022-11-15T01:48:47;12.00;;;6.15;;
42260;SDS011;27926;48.062;7.474;2022-11-15T01:51:15;15.43;;;5.68;;
42260;SDS011;27926;48.062;7.474;2022-11-15T01:53:44;11.98;;;5.75;;
42260;SDS011;27926;48.062;7.474;2022-11-15T01:56:12;17.13;;;5.30;;
42260;SDS011;27926;48.062;7.474;2022-11-15T01:58:40;18.15;;;5.32;;
42260;SDS011;27926;48.062;7.474;2022-11-15T02:01:05;12.93;;;5.10;;
42260;SDS011;27926;48.062;7.474;2022-11-15T02:03:33;10.20;;;4.60;;
42260;SDS011;27926;48.062;7.474;2022-11-15T02:06:02;14.32;;;4.95;;
42260;SDS011;27926;48.062;7.474;2022-11-15T02:08:29;7.70;;;4.43;;
42260;SDS011;27926;48.062;7.474;2022-11-15T02:10:53;13.80;;;4.93;;
42260;SDS011;27926;48.062;7.474;2022-11-15T02:13:18;10.00;;;5.20;;
42260;SDS011;27926;48.062;7.474;2022-11-15T02:18:38;11.10;;;4.50;;
42260;SDS011;27926;48.062;7.474;2022-11-15T02:32:49;11.07;;;4.43;;
42260;SDS011;27926;48.062;7.474;2022-11-15T02:37:57;11.40;;;4.18;;
42260;SDS011;27926;48.062;7.474;2022-11-15T02:40:46;8.57;;;4.57;;
42260;SDS011;27926;48.062;7.474;2022-11-15T02:43:15;6.68;;;3.75;;
42260;SDS011;27926;48.062;7.474;2022-11-15T02:46:16;12.93;;;4.20;;
42260;SDS011;27926;48.062;7.474;2022-11-15T02:48:46;11.07;;;4.05;;
42260;SDS011;27926;48.062;7.474;2022-11-15T02:51:12;6.55;;;3.25;;
42260;SDS011;27926;48.062;7.474;2022-11-15T02:53:38;11.45;;;3.85;;
42260;SDS011;27926;48.062;7.474;2022-11-15T02:56:03;19.45;;;3.60;;
42260;SDS011;27926;48.062;7.474;2022-11-15T03:01:37;11.63;;;3.35;;
42260;SDS011;27926;48.062;7.474;2022-11-15T03:04:21;7.85;;;3.20;;
42260;SDS011;27926;48.062;7.474;2022-11-15T03:18:04;10.38;;;2.50;;
42260;SDS011;27926;48.062;7.474;2022-11-15T03:20:36;9.93;;;3.20;;
42260;SDS011;27926;48.062;7.474;2022-11-15T03:23:03;5.37;;;3.27;;
42260;SDS011;27926;48.062;7.474;2022-11-15T03:25:30;7.82;;;2.85;;
42260;SDS011;27926;48.062;7.474;2022-11-15T03:27:57;6.88;;;3.17;;
42260;SDS011;27926;48.062;7.474;2022-11-15T03:30:26;5.20;;;3.13;;
42260;SDS011;27926;48.062;7.474;2022-11-15T03:32:56;5.72;;;2.85;;
42260;SDS011;27926;48.062;7.474;2022-11-15T03:35:23;9.70;;;3.17;;
42260;SDS011;27926;48.062;7.474;2022-11-15T03:40:39;5.85;;;2.92;;
42260;SDS011;27926;48.062;7.474;2022-11-15T03:45:49;6.60;;;2.75;;
42260;SDS011;27926;48.062;7.474;2022-11-15T03:48:20;8.05;;;3.15;;
42260;SDS011;27926;48.062;7.474;2022-11-15T03:50:48;4.07;;;2.50;;
42260;SDS011;27926;48.062;7.474;2022-11-15T03:53:13;7.55;;;2.80;;
42260;SDS011;27926;48.062;7.474;2022-11-15T03:55:38;4.00;;;2.28;;
42260;SDS011;27926;48.062;7.474;2022-11-15T03:58:02;5.70;;;2.25;;
42260;SDS011;27926;48.062;7.474;2022-11-15T04:00:27;3.13;;;2.60;;
42260;SDS011;27926;48.062;7.474;2022-11-15T04:02:52;3.92;;;2.05;;
42260;SDS011;27926;48.062;7.474;2022-11-15T04:05:17;3.05;;;2.17;;
42260;SDS011;27926;48.062;7.474;2022-11-15T04:07:42;3.53;;;1.70;;
42260;SDS011;27926;48.062;7.474;2022-11-15T04:10:06;4.60;;;2.05;;
42260;SDS011;27926;48.062;7.474;2022-11-15T04:12:33;4.45;;;2.00;;
42260;SDS011;27926;48.062;7.474;2022-11-15T04:15:04;5.32;;;1.83;;
42260;SDS011;27926;48.062;7.474;2022-11-15T04:17:31;2.65;;;1.60;;
42260;SDS011;27926;48.062;7.474;2022-11-15T04:19:55;2.55;;;1.73;;
42260;SDS011;27926;48.062;7.474;2022-11-15T04:22:39;3.65;;;1.77;;
42260;SDS011;27926;48.062;7.474;2022-11-15T04:25:22;2.20;;;1.63;;
42260;SDS011;27926;48.062;7.474;2022-11-15T04:27:46;3.92;;;1.85;;
42260;SDS011;27926;48.062;7.474;2022-11-15T04:30:11;1.98;;;1.65;;
42260;SDS011;27926;48.062;7.474;2022-11-15T04:32:35;3.30;;;1.85;;
42260;SDS011;27926;48.062;7.474;2022-11-15T04:35:00;2.92;;;1.60;;
42260;SDS011;27926;48.062;7.474;2022-11-15T04:37:24;3.47;;;1.75;;
42260;SDS011;27926;48.062;7.474;2022-11-15T04:39:49;3.97;;;1.95;;
42260;SDS011;27926;48.062;7.474;2022-11-15T04:42:14;6.95;;;2.20;;
42260;SDS011;27926;48.062;7.474;2022-11-15T04:44:38;3.60;;;1.80;;
42260;SDS011;27926;48.062;7.474;2022-11-15T04:47:03;4.22;;;2.20;;
42260;SDS011;27926;48.062;7.474;2022-11-15T04:49:28;4.47;;;1.83;;
42260;SDS011;27926;48.062;7.474;2022-11-15T04:51:53;3.90;;;1.88;;
42260;SDS011;27926;48.062;7.474;2022-11-15T04:54:17;2.42;;;1.67;;
42260;SDS011;27926;48.062;7.474;2022-11-15T04:56:42;3.22;;;1.63;;
42260;SDS011;27926;48.062;7.474;2022-11-15T04:59:06;5.82;;;1.58;;
42260;SDS011;27926;48.062;7.474;2022-11-15T05:01:31;3.33;;;1.65;;
42260;SDS011;27926;48.062;7.474;2022-11-15T05:03:56;4.50;;;2.22;;
42260;SDS011;27926;48.062;7.474;2022-11-15T05:06:39;2.72;;;1.92;;
42260;SDS011;27926;48.062;7.474;2022-11-15T05:09:03;3.30;;;1.83;;
42260;SDS011;27926;48.062;7.474;2022-11-15T05:11:28;5.30;;;1.75;;
42260;SDS011;27926;48.062;7.474;2022-11-15T05:13:53;5.88;;;1.70;;
42260;SDS011;27926;48.062;7.474;2022-11-15T05:16:18;2.60;;;1.67;;
42260;SDS011;27926;48.062;7.474;2022-11-15T05:18:42;2.90;;;1.60;;
42260;SDS011;27926;48.062;7.474;2022-11-15T05:21:11;2.70;;;1.80;;
42260;SDS011;27926;48.062;7.474;2022-11-15T05:23:38;5.93;;;1.60;;
42260;SDS011;27926;48.062;7.474;2022-11-15T05:26:04;0.90;;;0.90;;
42260;SDS011;27926;48.062;7.474;2022-11-15T05:28:31;1.38;;;0.75;;
42260;SDS011;27926;48.062;7.474;2022-11-15T05:31:03;0.90;;;0.90;;
42260;SDS011;27926;48.062;7.474;2022-11-15T05:33:29;2.95;;;1.15;;
42260;SDS011;27926;48.062;7.474;2022-11-15T05:35:56;1.05;;;0.70;;
42260;SDS011;27926;48.062;7.474;2022-11-15T05:38:24;1.73;;;1.00;;
42260;SDS011;27926;48.062;7.474;2022-11-15T05:40:49;1.50;;;0.95;;
42260;SDS011;27926;48.062;7.474;2022-11-15T05:43:14;5.95;;;1.08;;
42260;SDS011;27926;48.062;7.474;2022-11-15T05:45:39;1.67;;;0.80;;
42260;SDS011;27926;48.062;7.474;2022-11-15T05:48:04;3.25;;;1.10;;
42260;SDS011;27926;48.062;7.474;2022-11-15T05:50:32;1.40;;;0.85;;
42260;SDS011;27926;48.062;7.474;2022-11-15T05:52:58;0.60;;;0.60;;
42260;SDS011;27926;48.062;7.474;2022-11-15T05:55:23;2.47;;;1.23;;
42260;SDS011;27926;48.062;7.474;2022-11-15T05:57:48;4.03;;;1.00;;
42260;SDS011;27926;48.062;7.474;2022-11-15T06:00:13;2.30;;;1.17;;
42260;SDS011;27926;48.062;7.474;2022-11-15T06:02:37;2.63;;;0.90;;
42260;SDS011;27926;48.062;7.474;2022-11-15T06:05:05;4.03;;;1.20;;
42260;SDS011;27926;48.062;7.474;2022-11-15T06:07:30;4.18;;;1.20;;
42260;SDS011;27926;48.062;7.474;2022-11-15T06:09:54;5.18;;;1.20;;
42260;SDS011;27926;48.062;7.474;2022-11-15T06:12:19;2.90;;;1.35;;
42260;SDS011;27926;48.062;7.474;2022-11-15T06:14:43;5.88;;;1.67;;
42260;SDS011;27926;48.062;7.474;2022-11-15T06:17:08;1.48;;;1.08;;
42260;SDS011;27926;48.062;7.474;2022-11-15T06:19:33;2.22;;;1.27;;
42260;SDS011;27926;48.062;7.474;2022-11-15T06:21:58;3.33;;;1.52;;
42260;SDS011;27926;48.062;7.474;2022-11-15T06:24:23;1.75;;;1.17;;
42260;SDS011;27926;48.062;7.474;2022-11-15T06:26:48;2.72;;;1.40;;
42260;SDS011;27926;48.062;7.474;2022-11-15T06:29:12;4.07;;;1.38;;
42260;SDS011;27926;48.062;7.474;2022-11-15T06:31:37;1.95;;;0.77;;
42260;SDS011;27926;48.062;7.474;2022-11-15T06:34:02;6.97;;;1.38;;
42260;SDS011;27926;48.062;7.474;2022-11-15T06:36:26;6.63;;;1.45;;
42260;SDS011;27926;48.062;7.474;2022-11-15T06:38:51;2.33;;;1.52;;
42260;SDS011;27926;48.062;7.474;2022-11-15T06:41:15;3.97;;;1.20;;
42260;SDS011;27926;48.062;7.474;2022-11-15T06:43:41;6.15;;;1.42;;
42260;SDS011;27926;48.062;7.474;2022-11-15T06:46:06;3.80;;;1.65;;
42260;SDS011;27926;48.062;7.474;2022-11-15T06:48:31;3.38;;;1.65;;
42260;SDS011;27926;48.062;7.474;2022-11-15T06:50:57;3.70;;;1.85;;
42260;SDS011;27926;48.062;7.474;2022-11-15T06:53:24;3.63;;;1.30;;
42260;SDS011;27926;48.062;7.474;2022-11-15T06:55:49;4.03;;;1.42;;
42260;SDS011;27926;48.062;7.474;2022-11-15T06:58:14;2.27;;;1.33;;
42260;SDS011;27926;48.062;7.474;2022-11-15T07:00:39;3.15;;;1.52;;
42260;SDS011;27926;48.062;7.474;2022-11-15T07:03:04;3.55;;;1.73;;
42260;SDS011;27926;48.062;7.474;2022-11-15T07:05:29;1.23;;;1.10;;
42260;SDS011;27926;48.062;7.474;2022-11-15T07:07:54;5.07;;;2.33;;
42260;SDS011;27926;48.062;7.474;2022-11-15T07:10:20;2.00;;;1.50;;
42260;SDS011;27926;48.062;7.474;2022-11-15T07:12:49;6.85;;;2.58;;
42260;SDS011;27926;48.062;7.474;2022-11-15T07:15:17;3.30;;;2.30;;
42260;SDS011;27926;48.062;7.474;2022-11-15T07:17:43;4.15;;;1.73;;
42260;SDS011;27926;48.062;7.474;2022-11-15T07:20:08;2.45;;;1.90;;
42260;SDS011;27926;48.062;7.474;2022-11-15T07:22:33;3.55;;;1.88;;
42260;SDS011;27926;48.062;7.474;2022-11-15T07:24:57;12.10;;;2.80;;
42260;SDS011;27926;48.062;7.474;2022-11-15T07:27:22;7.88;;;3.83;;
42260;SDS011;27926;48.062;7.474;2022-11-15T07:29:46;5.32;;;3.28;;
42260;SDS011;27926;48.062;7.474;2022-11-15T07:32:11;4.63;;;3.47;;
42260;SDS011;27926;48.062;7.474;2022-11-15T07:34:36;4.75;;;3.08;;
42260;SDS011;27926;48.062;7.474;2022-11-15T07:37:00;5.53;;;3.45;;
42260;SDS011;27926;48.062;7.474;2022-11-15T07:39:25;10.05;;;3.10;;
42260;SDS011;27926;48.062;7.474;2022-11-15T07:41:49;4.22;;;3.20;;
42260;SDS011;27926;48.062;7.474;2022-11-15T07:44:34;9.65;;;2.45;;
42260;SDS011;27926;48.062;7.474;2022-11-15T07:46:59;8.30;;;2.90;;
42260;SDS011;27926;48.062;7.474;2022-11-15T07:49:23;7.03;;;2.97;;
42260;SDS011;27926;48.062;7.474;2022-11-15T07:51:48;4.45;;;2.63;;
42260;SDS011;27926;48.062;7.474;2022-11-15T07:54:12;3.83;;;2.53;;
42260;SDS011;27926;48.062;7.474;2022-11-15T07:56:37;6.63;;;3.50;;
42260;SDS011;27926;48.062;7.474;2022-11-15T07:59:03;3.85;;;2.83;;
42260;SDS011;27926;48.062;7.474;2022-11-15T08:01:27;3.13;;;2.20;;
42260;SDS011;27926;48.062;7.474;2022-11-15T08:03:52;3.70;;;2.10;;
42260;SDS011;27926;48.062;7.474;2022-11-15T08:06:17;15.43;;;4.57;;
42260;SDS011;27926;48.062;7.474;2022-11-15T08:08:42;6.57;;;2.72;;
42260;SDS011;27926;48.062;7.474;2022-11-15T08:11:07;4.40;;;3.55;;
42260;SDS011;27926;48.062;7.474;2022-11-15T08:13:31;4.72;;;2.67;;
42260;SDS011;27926;48.062;7.474;2022-11-15T08:16:00;5.40;;;3.73;;
42260;SDS011;27926;48.062;7.474;2022-11-15T08:18:26;5.82;;;3.47;;
42260;SDS011;27926;48.062;7.474;2022-11-15T08:20:51;6.53;;;3.50;;
42260;SDS011;27926;48.062;7.474;2022-11-15T08:23:16;13.88;;;3.20;;
42260;SDS011;27926;48.062;7.474;2022-11-15T08:25:41;10.10;;;3.88;;
42260;SDS011;27926;48.062;7.474;2022-11-15T08:28:07;5.57;;;3.72;;
42260;SDS011;27926;48.062;7.474;2022-11-15T08:30:34;8.57;;;4.30;;
42260;SDS011;27926;48.062;7.474;2022-11-15T08:33:06;11.55;;;5.60;;
42260;SDS011;27926;48.062;7.474;2022-11-15T08:35:34;13.27;;;4.80;;
42260;SDS011;27926;48.062;7.474;2022-11-15T08:37:59;10.43;;;4.65;;
42260;SDS011;27926;48.062;7.474;2022-11-15T08:40:24;9.93;;;4.35;;
42260;SDS011;27926;48.062;7.474;2022-11-15T08:42:50;13.88;;;4.68;;
42260;SDS011;27926;48.062;7.474;2022-11-15T08:45:15;10.00;;;4.32;;
42260;SDS011;27926;48.062;7.474;2022-11-15T08:47:40;8.80;;;4.40;;
42260;SDS011;27926;48.062;7.474;2022-11-15T08:50:05;9.70;;;4.85;;
42260;SDS011;27926;48.062;7.474;2022-11-15T08:52:31;8.38;;;4.57;;
42260;SDS011;27926;48.062;7.474;2022-11-15T08:54:56;6.73;;;3.93;;
42260;SDS011;27926;48.062;7.474;2022-11-15T08:57:21;8.15;;;4.22;;
42260;SDS011;27926;48.062;7.474;2022-11-15T08:59:46;5.70;;;3.95;;
42260;SDS011;27926;48.062;7.474;2022-11-15T09:02:14;6.18;;;3.28;;
42260;SDS011;27926;48.062;7.474;2022-11-15T09:04:43;8.20;;;3.85;;
42260;SDS011;27926;48.062;7.474;2022-11-15T09:07:11;12.98;;;3.65;;
42260;SDS011;27926;48.062;7.474;2022-11-15T09:09:37;7.03;;;3.05;;
42260;SDS011;27926;48.062;7.474;2022-11-15T09:12:03;4.97;;;3.42;;
42260;SDS011;27926;48.062;7.474;2022-11-15T09:14:29;6.00;;;3.38;;
42260;SDS011;27926;48.062;7.474;2022-11-15T09:16:54;9.77;;;3.63;;
42260;SDS011;27926;48.062;7.474;2022-11-15T09:19:20;4.95;;;3.53;;
42260;SDS011;27926;48.062;7.474;2022-11-15T09:21:45;9.73;;;3.03;;
42260;SDS011;27926;48.062;7.474;2022-11-15T09:24:13;7.53;;;3.10;;
42260;SDS011;27926;48.062;7.474;2022-11-15T09:26:38;5.93;;;3.08;;
42260;SDS011;27926;48.062;7.474;2022-11-15T09:29:03;3.55;;;2.28;;
42260;SDS011;27926;48.062;7.474;2022-11-15T09:31:28;11.07;;;3.10;;
42260;SDS011;27926;48.062;7.474;2022-11-15T09:33:54;8.13;;;3.43;;
42260;SDS011;27926;48.062;7.474;2022-11-15T09:36:19;9.32;;;3.22;;
42260;SDS011;27926;48.062;7.474;2022-11-15T09:38:44;3.73;;;2.83;;
42260;SDS011;27926;48.062;7.474;2022-11-15T09:43:45;12.85;;;3.28;;
42260;SDS011;27926;48.062;7.474;2022-11-15T09:49:25;6.57;;;3.50;;
42260;SDS011;27926;48.062;7.474;2022-11-15T09:51:51;8.93;;;3.60;;
42260;SDS011;27926;48.062;7.474;2022-11-15T10:04:47;6.28;;;4.43;;
42260;SDS011;27926;48.062;7.474;2022-11-15T10:07:19;4.95;;;3.30;;
42260;SDS011;27926;48.062;7.474;2022-11-15T10:10:08;6.72;;;2.72;;
42260;SDS011;27926;48.062;7.474;2022-11-15T10:12:48;5.47;;;3.30;;
42260;SDS011;27926;48.062;7.474;2022-11-15T10:15:15;5.18;;;2.75;;
42260;SDS011;27926;48.062;7.474;2022-11-15T10:23:10;5.68;;;2.95;;
42260;SDS011;27926;48.062;7.474;2022-11-15T10:25:38;7.45;;;2.95;;
42260;SDS011;27926;48.062;7.474;2022-11-15T10:33:26;8.02;;;3.13;;
42260;SDS011;27926;48.062;7.474;2022-11-15T10:46:44;6.03;;;3.83;;
42260;SDS011;27926;48.062;7.474;2022-11-15T10:49:28;5.05;;;3.35;;
42260;SDS011;27926;48.062;7.474;2022-11-15T10:52:17;5.05;;;3.22;;
42260;SDS011;27926;48.062;7.474;2022-11-15T10:57:12;10.57;;;3.25;;
42260;SDS011;27926;48.062;7.474;2022-11-15T10:59:42;5.50;;;2.92;;
42260;SDS011;27926;48.062;7.474;2022-11-15T11:02:38;6.88;;;3.45;;
42260;SDS011;27926;48.062;7.474;2022-11-15T11:05:29;6.43;;;3.42;;
42260;SDS011;27926;48.062;7.474;2022-11-15T11:08:02;19.48;;;3.38;;
42260;SDS011;27926;48.062;7.474;2022-11-15T11:10:46;5.80;;;3.53;;
42260;SDS011;27926;48.062;7.474;2022-11-15T11:16:38;8.40;;;3.63;;
42260;SDS011;27926;48.062;7.474;2022-11-15T11:21:10;7.43;;;3.33;;
42260;SDS011;27926;48.062;7.474;2022-11-15T11:23:51;7.68;;;3.33;;
42260;SDS011;27926;48.062;7.474;2022-11-15T11:26:35;8.23;;;3.35;;
42260;SDS011;27926;48.062;7.474;2022-11-15T11:37:39;5.47;;;3.33;;
42260;SDS011;27926;48.062;7.474;2022-11-15T11:48:38;12.32;;;3.67;;
42260;SDS011;27926;48.062;7.474;2022-11-15T11:51:07;7.80;;;3.97;;
42260;SDS011;27926;48.062;7.474;2022-11-15T11:56:27;5.78;;;3.80;;
42260;SDS011;27926;48.062;7.474;2022-11-15T11:58:58;8.27;;;3.83;;
42260;SDS011;27926;48.062;7.474;2022-11-15T12:01:34;9.93;;;3.78;;
42260;SDS011;27926;48.062;7.474;2022-11-15T12:09:33;9.20;;;3.65;;
42260;SDS011;27926;48.062;7.474;2022-11-15T12:12:06;11.23;;;3.20;;
42260;SDS011;27926;48.062;7.474;2022-11-15T12:14:43;9.00;;;3.63;;
42260;SDS011;27926;48.062;7.474;2022-11-15T12:17:12;9.30;;;3.83;;
42260;SDS011;27926;48.062;7.474;2022-11-15T12:19:39;7.50;;;3.50;;
42260;SDS011;27926;48.062;7.474;2022-11-15T12:22:23;6.43;;;4.28;;
42260;SDS011;27926;48.062;7.474;2022-11-15T12:25:14;12.48;;;4.00;;
42260;SDS011;27926;48.062;7.474;2022-11-15T12:28:11;6.05;;;3.35;;
42260;SDS011;27926;48.062;7.474;2022-11-15T12:31:03;7.20;;;3.60;;
42260;SDS011;27926;48.062;7.474;2022-11-15T12:33:43;7.85;;;3.55;;
42260;SDS011;27926;48.062;7.474;2022-11-15T12:36:10;10.65;;;4.65;;
42260;SDS011;27926;48.062;7.474;2022-11-15T12:38:54;6.18;;;3.42;;
42260;SDS011;27926;48.062;7.474;2022-11-15T12:41:22;9.00;;;4.20;;
42260;SDS011;27926;48.062;7.474;2022-11-15T12:43:49;10.82;;;4.25;;
42260;SDS011;27926;48.062;7.474;2022-11-15T12:46:21;7.67;;;4.27;;
42260;SDS011;27926;48.062;7.474;2022-11-15T12:48:56;5.43;;;3.63;;
42260;SDS011;27926;48.062;7.474;2022-11-15T13:02:32;5.78;;;3.63;;
42260;SDS011;27926;48.062;7.474;2022-11-15T13:20:19;7.10;;;3.53;;
42260;SDS011;27926;48.062;7.474;2022-11-15T13:28:00;8.88;;;3.72;;
42260;SDS011;27926;48.062;7.474;2022-11-15T13:30:27;7.63;;;4.00;;
42260;SDS011;27926;48.062;7.474;2022-11-15T13:32:55;6.85;;;3.25;;
42260;SDS011;27926;48.062;7.474;2022-11-15T13:35:28;5.53;;;3.03;;
42260;SDS011;27926;48.062;7.474;2022-11-15T13:37:57;8.75;;;3.72;;
42260;SDS011;27926;48.062;7.474;2022-11-15T13:40:29;7.57;;;3.47;;
42260;SDS011;27926;48.062;7.474;2022-11-15T13:42:59;9.02;;;3.78;;
42260;SDS011;27926;48.062;7.474;2022-11-15T13:45:37;10.40;;;3.72;;
42260;SDS011;27926;48.062;7.474;2022-11-15T13:48:02;5.50;;;3.20;;
42260;SDS011;27926;48.062;7.474;2022-11-15T13:50:29;10.97;;;3.90;;
42260;SDS011;27926;48.062;7.474;2022-11-15T13:52:57;7.70;;;3.47;;
42260;SDS011;27926;48.062;7.474;2022-11-15T13:55:24;5.90;;;3.17;;
42260;SDS011;27926;48.062;7.474;2022-11-15T13:57:59;5.82;;;3.40;;
42260;SDS011;27926;48.062;7.474;2022-11-15T14:02:57;5.28;;;3.38;;
42260;SDS011;27926;48.062;7.474;2022-11-15T14:05:31;8.60;;;3.72;;
42260;SDS011;27926;48.062;7.474;2022-11-15T14:08:00;7.28;;;3.30;;
42260;SDS011;27926;48.062;7.474;2022-11-15T14:10:46;5.38;;;3.38;;
42260;SDS011;27926;48.062;7.474;2022-11-15T14:13:31;4.80;;;3.08;;
42260;SDS011;27926;48.062;7.474;2022-11-15T14:16:11;7.28;;;3.53;;
42260;SDS011;27926;48.062;7.474;2022-11-15T14:18:48;10.60;;;3.75;;
42260;SDS011;27926;48.062;7.474;2022-11-15T14:23:38;5.50;;;3.13;;
42260;SDS011;27926;48.062;7.474;2022-11-15T14:26:03;9.07;;;4.55;;
42260;SDS011;27926;48.062;7.474;2022-11-15T14:28:29;14.13;;;3.60;;
42260;SDS011;27926;48.062;7.474;2022-11-15T14:30:57;5.85;;;3.42;;
42260;SDS011;27926;48.062;7.474;2022-11-15T14:33:25;6.07;;;3.70;;
42260;SDS011;27926;48.062;7.474;2022-11-15T14:35:57;6.20;;;3.38;;
42260;SDS011;27926;48.062;7.474;2022-11-15T14:38:26;7.57;;;3.30;;
42260;SDS011;27926;48.062;7.474;2022-11-15T14:40:51;8.00;;;3.30;;
42260;SDS011;27926;48.062;7.474;2022-11-15T14:43:18;6.03;;;3.42;;
42260;SDS011;27926;48.062;7.474;2022-11-15T14:45:43;5.55;;;3.35;;
42260;SDS011;27926;48.062;7.474;2022-11-15T14:48:08;7.75;;;3.60;;
42260;SDS011;27926;48.062;7.474;2022-11-15T14:50:33;5.20;;;2.90;;
42260;SDS011;27926;48.062;7.474;2022-11-15T14:52:59;6.95;;;3.85;;
42260;SDS011;27926;48.062;7.474;2022-11-15T14:55:25;8.02;;;3.38;;
42260;SDS011;27926;48.062;7.474;2022-11-15T14:57:55;4.68;;;2.90;;
42260;SDS011;27926;48.062;7.474;2022-11-15T15:00:20;7.55;;;3.75;;
42260;SDS011;27926;48.062;7.474;2022-11-15T15:02:46;6.85;;;3.42;;
42260;SDS011;27926;48.062;7.474;2022-11-15T15:07:47;7.68;;;3.83;;
42260;SDS011;27926;48.062;7.474;2022-11-15T15:10:12;7.85;;;3.72;;
42260;SDS011;27926;48.062;7.474;2022-11-15T15:12:38;4.75;;;3.13;;
42260;SDS011;27926;48.062;7.474;2022-11-15T15:15:03;7.13;;;3.58;;
42260;SDS011;27926;48.062;7.474;2022-11-15T15:17:30;7.15;;;3.30;;
42260;SDS011;27926;48.062;7.474;2022-11-15T15:19:55;6.45;;;3.42;;
42260;SDS011;27926;48.062;7.474;2022-11-15T15:22:20;7.00;;;3.40;;
42260;SDS011;27926;48.062;7.474;2022-11-15T15:24:49;13.65;;;3.42;;
42260;SDS011;27926;48.062;7.474;2022-11-15T15:27:14;7.22;;;3.20;;
42260;SDS011;27926;48.062;7.474;2022-11-15T15:29:39;8.38;;;3.38;;
42260;SDS011;27926;48.062;7.474;2022-11-15T15:32:04;7.18;;;3.63;;
42260;SDS011;27926;48.062;7.474;2022-11-15T15:34:29;10.25;;;3.47;;
42260;SDS011;27926;48.062;7.474;2022-11-15T15:39:53;8.88;;;3.55;;
42260;SDS011;27926;48.062;7.474;2022-11-15T15:42:20;18.15;;;6.85;;
42260;SDS011;27926;48.062;7.474;2022-11-15T15:44:46;57.33;;;20.55;;
42260;SDS011;27926;48.062;7.474;2022-11-15T15:47:15;150.57;;;48.20;;
42260;SDS011;27926;48.062;7.474;2022-11-15T15:49:45;52.65;;;21.25;;
42260;SDS011;27926;48.062;7.474;2022-11-15T15:52:10;101.38;;;35.00;;
42260;SDS011;27926;48.062;7.474;2022-11-15T15:54:35;178.35;;;60.38;;
42260;SDS011;27926;48.062;7.474;2022-11-15T15:57:00;154.35;;;49.08;;
42260;SDS011;27926;48.062;7.474;2022-11-15T15:59:24;137.85;;;46.10;;
42260;SDS011;27926;48.062;7.474;2022-11-15T16:01:49;94.57;;;30.70;;
42260;SDS011;27926;48.062;7.474;2022-11-15T16:04:14;122.85;;;37.83;;
42260;SDS011;27926;48.062;7.474;2022-11-15T16:06:39;120.45;;;37.80;;
42260;SDS011;27926;48.062;7.474;2022-11-15T16:09:08;105.68;;;36.63;;
42260;SDS011;27926;48.062;7.474;2022-11-15T16:11:37;103.82;;;33.08;;
42260;SDS011;27926;48.062;7.474;2022-11-15T16:14:02;94.63;;;30.88;;
42260;SDS011;27926;48.062;7.474;2022-11-15T16:16:26;43.65;;;17.13;;
42260;SDS011;27926;48.062;7.474;2022-11-15T16:18:51;56.78;;;22.20;;
42260;SDS011;27926;48.062;7.474;2022-11-15T16:21:17;56.63;;;23.20;;
42260;SDS011;27926;48.062;7.474;2022-11-15T16:23:42;53.10;;;21.23;;
42260;SDS011;27926;48.062;7.474;2022-11-15T16:26:14;21.92;;;8.57;;
42260;SDS011;27926;48.062;7.474;2022-11-15T16:28:45;19.92;;;8.63;;
42260;SDS011;27926;48.062;7.474;2022-11-15T16:31:10;14.13;;;7.13;;
42260;SDS011;27926;48.062;7.474;2022-11-15T16:33:36;14.82;;;6.63;;
42260;SDS011;27926;48.062;7.474;2022-11-15T16:36:01;12.98;;;6.43;;
42260;SDS011;27926;48.062;7.474;2022-11-15T16:38:27;13.60;;;7.25;;
42260;SDS011;27926;48.062;7.474;2022-11-15T16:40:52;26.85;;;10.02;;
42260;SDS011;27926;48.062;7.474;2022-11-15T16:43:16;96.47;;;38.65;;
42260;SDS011;27926;48.062;7.474;2022-11-15T16:45:41;117.25;;;52.97;;
42260;SDS011;27926;48.062;7.474;2022-11-15T16:48:06;45.97;;;22.17;;
42260;SDS011;27926;48.062;7.474;2022-11-15T16:50:39;45.80;;;22.73;;
42260;SDS011;27926;48.062;7.474;2022-11-15T16:53:03;46.90;;;25.40;;
42260;SDS011;27926;48.062;7.474;2022-11-15T16:55:28;53.70;;;29.73;;
42260;SDS011;27926;48.062;7.474;2022-11-15T16:57:53;34.05;;;20.45;;
42260;SDS011;27926;48.062;7.474;2022-11-15T17:00:21;42.15;;;23.73;;
42260;SDS011;27926;48.062;7.474;2022-11-15T17:02:46;35.80;;;18.27;;
42260;SDS011;27926;48.062;7.474;2022-11-15T17:05:12;32.53;;;17.15;;
42260;SDS011;27926;48.062;7.474;2022-11-15T17:07:38;37.08;;;17.73;;
42260;SDS011;27926;48.062;7.474;2022-11-15T17:10:03;42.35;;;20.63;;
42260;SDS011;27926;48.062;7.474;2022-11-15T17:12:28;42.15;;;18.17;;
42260;SDS011;27926;48.062;7.474;2022-11-15T17:14:54;35.30;;;16.93;;
42260;SDS011;27926;48.062;7.474;2022-11-15T17:17:18;42.17;;;19.67;;